21°C Temp
19°C Dewpoint
88% Humidity
Temperature
11 KM/H
7 MPH
6 KTS
200°
South South
West

Wind Speed
Light Rain
Showers
Pressure 1010.92 (hPa) - 29.85 (in)
Visibility 6.2 (mi) - 10.0 (km)

Current Conditions
LIRQ
Location 70(km)
Metar :LIRQ 191250Z 20006KT 160V260 9999 -RA SCT018TCU BKN027 21/19 Q1011 RESHRA
Sun 19th September 14:50 pm

Airport
  Metar Aviation API Data Provided by https://www.checkwx.com/ PHP scripts by weather34.com ©2021